Massena International Richards Field Massena US
ICAO: KMSS
IATA: MSS
Category: Medium
Scheduled Services: Yes

Elevation: 215 ft
TransAlt. 18000 ft.

Airport Communications:
BOSTON APP/DEP:135.25
ASOS:128.075
BURLINGTON RDO:122.2
CTAF/UNICOM:123

KMSS Zoom In..

Runways:

(A) RW 05 length 5600 ft width 100 ft
ILS 108.70 / hdg 45

(B) RW 09 length 4000 ft width 100 ft
---- / hdg 90

(C) RW 23 length 5600 ft width 100 ft
---- / hdg 225

(D) RW 27 length 4000 ft width 100 ft
---- / hdg 270

Location; KMSS
Day. 22 / Time. 23.53 Zulu
* Altimeter: 30.07
* Temperature: -06° c. -21.2°f.
* Wind from: 060° Speed 18 kn with Gusts up to 24 kn.
Dewpoint: -07° c.
Visibility: 3 Statute Miles.
Clouds: Overcast 1500 ft.
Conditions: Mist.

KMSS 222353Z AUTO 06018G24KT 3SM UP BR OVC015 M06/M07 A3007 RMK AO2 PK WND 06031/2312 UPE04B13SNB04E13 SLP189 P0000 60005 I6001 T10611072 11050 21061 56028


Wind From 060°
Speed 18 kn.

YouTube Music Video
 
jpsmedia.com for Web Design  worldairports.se 2018   terms of use